sensor_id;sensor_type;location;lat;lon;timestamp;temperature;humidity
1063;DHT22;520;50.932;6.962;2023-09-19T00:00:14;19.50;97.50
1063;DHT22;520;50.932;6.962;2023-09-19T00:03:33;19.20;98.00
1063;DHT22;520;50.932;6.962;2023-09-19T00:07:04;19.20;98.20
1063;DHT22;520;50.932;6.962;2023-09-19T00:13:20;19.40;98.00
1063;DHT22;520;50.932;6.962;2023-09-19T00:16:34;19.40;97.70
1063;DHT22;520;50.932;6.962;2023-09-19T00:20:01;19.40;97.70
1063;DHT22;520;50.932;6.962;2023-09-19T00:23:07;19.20;98.10
1063;DHT22;520;50.932;6.962;2023-09-19T00:26:02;19.10;98.10
1063;DHT22;520;50.932;6.962;2023-09-19T00:33:14;19.20;97.80
1063;DHT22;520;50.932;6.962;2023-09-19T00:36:02;19.00;98.20
1063;DHT22;520;50.932;6.962;2023-09-19T00:42:57;18.80;98.80
1063;DHT22;520;50.932;6.962;2023-09-19T00:45:56;18.80;98.50
1063;DHT22;520;50.932;6.962;2023-09-19T00:48:54;18.80;98.60
1063;DHT22;520;50.932;6.962;2023-09-19T00:55:28;19.00;98.20
1063;DHT22;520;50.932;6.962;2023-09-19T00:58:18;19.00;98.20
1063;DHT22;520;50.932;6.962;2023-09-19T01:01:43;19.00;98.30
1063;DHT22;520;50.932;6.962;2023-09-19T01:04:32;19.10;98.30
1063;DHT22;520;50.932;6.962;2023-09-19T01:11:42;19.00;98.00
1063;DHT22;520;50.932;6.962;2023-09-19T01:14:59;18.90;98.30
1063;DHT22;520;50.932;6.962;2023-09-19T01:35:51;18.80;98.20
1063;DHT22;520;50.932;6.962;2023-09-19T01:39:26;18.90;97.90
1063;DHT22;520;50.932;6.962;2023-09-19T01:53:33;18.70;98.30
1063;DHT22;520;50.932;6.962;2023-09-19T02:03:48;18.60;98.10
1063;DHT22;520;50.932;6.962;2023-09-19T02:07:06;18.60;97.90
1063;DHT22;520;50.932;6.962;2023-09-19T02:09:52;18.60;97.80
1063;DHT22;520;50.932;6.962;2023-09-19T02:13:13;18.60;97.60
1063;DHT22;520;50.932;6.962;2023-09-19T02:16:21;18.50;97.70
1063;DHT22;520;50.932;6.962;2023-09-19T02:19:26;18.60;97.60
1063;DHT22;520;50.932;6.962;2023-09-19T02:26:22;18.60;97.60
1063;DHT22;520;50.932;6.962;2023-09-19T02:29:41;18.60;97.60
1063;DHT22;520;50.932;6.962;2023-09-19T02:32:28;18.50;97.40
1063;DHT22;520;50.932;6.962;2023-09-19T02:35:26;18.50;97.50
1063;DHT22;520;50.932;6.962;2023-09-19T02:38:43;18.50;97.40
1063;DHT22;520;50.932;6.962;2023-09-19T02:41:25;18.40;97.40
1063;DHT22;520;50.932;6.962;2023-09-19T02:44:21;18.40;97.40
1063;DHT22;520;50.932;6.962;2023-09-19T02:50:32;18.30;97.60
1063;DHT22;520;50.932;6.962;2023-09-19T02:53:25;18.40;97.60
1063;DHT22;520;50.932;6.962;2023-09-19T02:56:21;18.30;97.20
1063;DHT22;520;50.932;6.962;2023-09-19T02:59:11;18.20;97.60
1063;DHT22;520;50.932;6.962;2023-09-19T03:02:01;18.20;97.70
1063;DHT22;520;50.932;6.962;2023-09-19T03:05:29;18.10;97.80
1063;DHT22;520;50.932;6.962;2023-09-19T03:08:39;18.10;97.80
1063;DHT22;520;50.932;6.962;2023-09-19T03:14:32;18.20;97.90
1063;DHT22;520;50.932;6.962;2023-09-19T03:17:22;18.20;97.80
1063;DHT22;520;50.932;6.962;2023-09-19T03:23:54;18.20;97.80
1063;DHT22;520;50.932;6.962;2023-09-19T03:34:10;18.00;98.00
1063;DHT22;520;50.932;6.962;2023-09-19T03:37:03;18.00;98.10
1063;DHT22;520;50.932;6.962;2023-09-19T03:40:00;17.90;98.20
1063;DHT22;520;50.932;6.962;2023-09-19T03:43:06;17.90;98.20
1063;DHT22;520;50.932;6.962;2023-09-19T03:45:44;18.10;97.90
1063;DHT22;520;50.932;6.962;2023-09-19T03:48:29;17.90;98.10
1063;DHT22;520;50.932;6.962;2023-09-19T03:51:27;17.80;98.30
1063;DHT22;520;50.932;6.962;2023-09-19T03:54:18;17.80;98.30
1063;DHT22;520;50.932;6.962;2023-09-19T03:57:08;17.70;98.80
1063;DHT22;520;50.932;6.962;2023-09-19T04:00:15;17.70;98.50
1063;DHT22;520;50.932;6.962;2023-09-19T04:03:01;17.70;98.60
1063;DHT22;520;50.932;6.962;2023-09-19T04:06:11;17.90;98.50
1063;DHT22;520;50.932;6.962;2023-09-19T04:08:52;18.20;98.10
1063;DHT22;520;50.932;6.962;2023-09-19T04:11:54;18.10;97.60
1063;DHT22;520;50.932;6.962;2023-09-19T04:14:46;18.00;97.90
1063;DHT22;520;50.932;6.962;2023-09-19T04:18:17;17.90;97.90
1063;DHT22;520;50.932;6.962;2023-09-19T04:20:58;17.90;98.00
1063;DHT22;520;50.932;6.962;2023-09-19T04:23:55;17.90;98.10
1063;DHT22;520;50.932;6.962;2023-09-19T04:26:38;17.80;97.90
1063;DHT22;520;50.932;6.962;2023-09-19T04:29:32;17.70;97.80
1063;DHT22;520;50.932;6.962;2023-09-19T04:32:05;17.50;98.10
1063;DHT22;520;50.932;6.962;2023-09-19T04:35:06;17.70;98.20
1063;DHT22;520;50.932;6.962;2023-09-19T04:38:00;17.60;97.90
1063;DHT22;520;50.932;6.962;2023-09-19T04:44:06;17.70;97.70
1063;DHT22;520;50.932;6.962;2023-09-19T04:46:54;17.50;97.60
1063;DHT22;520;50.932;6.962;2023-09-19T04:49:55;17.50;97.70
1063;DHT22;520;50.932;6.962;2023-09-19T04:52:54;17.60;96.90
1063;DHT22;520;50.932;6.962;2023-09-19T05:05:35;17.30;96.60
1063;DHT22;520;50.932;6.962;2023-09-19T05:08:46;17.70;95.70
1063;DHT22;520;50.932;6.962;2023-09-19T05:11:47;17.80;95.30
1063;DHT22;520;50.932;6.962;2023-09-19T05:18:32;17.50;95.60
1063;DHT22;520;50.932;6.962;2023-09-19T05:21:44;17.40;96.10
1063;DHT22;520;50.932;6.962;2023-09-19T05:24:31;17.70;95.60
1063;DHT22;520;50.932;6.962;2023-09-19T05:27:11;17.60;95.30
1063;DHT22;520;50.932;6.962;2023-09-19T05:30:19;17.60;95.50
1063;DHT22;520;50.932;6.962;2023-09-19T05:33:19;17.60;95.40
1063;DHT22;520;50.932;6.962;2023-09-19T05:36:28;17.40;95.50
1063;DHT22;520;50.932;6.962;2023-09-19T05:39:14;17.60;95.30
1063;DHT22;520;50.932;6.962;2023-09-19T05:41:59;17.60;95.10
1063;DHT22;520;50.932;6.962;2023-09-19T05:44:50;17.70;95.10
1063;DHT22;520;50.932;6.962;2023-09-19T05:48:15;17.60;95.10
1063;DHT22;520;50.932;6.962;2023-09-19T05:54:51;17.60;95.10
1063;DHT22;520;50.932;6.962;2023-09-19T05:57:57;17.60;95.00
1063;DHT22;520;50.932;6.962;2023-09-19T06:01:02;17.50;95.30
1063;DHT22;520;50.932;6.962;2023-09-19T06:04:32;17.50;95.20
1063;DHT22;520;50.932;6.962;2023-09-19T06:07:03;17.40;95.10
1063;DHT22;520;50.932;6.962;2023-09-19T06:10:11;17.40;95.30
1063;DHT22;520;50.932;6.962;2023-09-19T06:18:57;17.50;95.30
1063;DHT22;520;50.932;6.962;2023-09-19T06:21:56;17.50;95.40
1063;DHT22;520;50.932;6.962;2023-09-19T06:24:37;17.50;95.20
1063;DHT22;520;50.932;6.962;2023-09-19T06:27:43;17.50;95.10
1063;DHT22;520;50.932;6.962;2023-09-19T06:30:35;17.40;95.50
1063;DHT22;520;50.932;6.962;2023-09-19T06:33:34;17.60;95.70
1063;DHT22;520;50.932;6.962;2023-09-19T06:36:22;17.70;95.20
1063;DHT22;520;50.932;6.962;2023-09-19T06:39:25;17.70;95.10
1063;DHT22;520;50.932;6.962;2023-09-19T06:42:09;17.70;95.20
1063;DHT22;520;50.932;6.962;2023-09-19T06:45:04;17.80;95.30
1063;DHT22;520;50.932;6.962;2023-09-19T06:48:06;17.90;95.00
1063;DHT22;520;50.932;6.962;2023-09-19T06:54:14;18.10;95.10
1063;DHT22;520;50.932;6.962;2023-09-19T06:57:13;18.40;94.30
1063;DHT22;520;50.932;6.962;2023-09-19T06:59:48;18.50;94.00
1063;DHT22;520;50.932;6.962;2023-09-19T07:06:05;18.40;93.90
1063;DHT22;520;50.932;6.962;2023-09-19T07:08:32;18.60;93.90
1063;DHT22;520;50.932;6.962;2023-09-19T07:15:14;18.60;93.50
1063;DHT22;520;50.932;6.962;2023-09-19T07:21:45;19.10;93.20
1063;DHT22;520;50.932;6.962;2023-09-19T07:27:42;19.40;92.30
1063;DHT22;520;50.932;6.962;2023-09-19T07:30:30;19.70;91.80
1063;DHT22;520;50.932;6.962;2023-09-19T07:36:09;20.10;91.00
1063;DHT22;520;50.932;6.962;2023-09-19T07:46:22;20.60;89.70
1063;DHT22;520;50.932;6.962;2023-09-19T07:56:33;21.70;85.60
1063;DHT22;520;50.932;6.962;2023-09-19T07:59:19;22.40;81.90
1063;DHT22;520;50.932;6.962;2023-09-19T08:02:15;22.20;80.50
1063;DHT22;520;50.932;6.962;2023-09-19T08:05:18;21.40;82.50
1063;DHT22;520;50.932;6.962;2023-09-19T08:07:53;20.90;84.40
1063;DHT22;520;50.932;6.962;2023-09-19T08:10:33;20.80;85.40
1063;DHT22;520;50.932;6.962;2023-09-19T08:13:22;20.80;86.00
1063;DHT22;520;50.932;6.962;2023-09-19T08:16:06;20.80;86.50
1063;DHT22;520;50.932;6.962;2023-09-19T08:19:01;20.70;86.50
1063;DHT22;520;50.932;6.962;2023-09-19T08:21:47;20.70;86.10
1063;DHT22;520;50.932;6.962;2023-09-19T08:24:53;20.50;86.30
1063;DHT22;520;50.932;6.962;2023-09-19T08:27:38;20.30;87.60
1063;DHT22;520;50.932;6.962;2023-09-19T08:30:23;20.50;88.10
1063;DHT22;520;50.932;6.962;2023-09-19T08:36:14;20.50;87.40
1063;DHT22;520;50.932;6.962;2023-09-19T08:39:29;20.40;87.90
1063;DHT22;520;50.932;6.962;2023-09-19T08:42:21;20.40;87.60
1063;DHT22;520;50.932;6.962;2023-09-19T08:45:07;20.40;87.00
1063;DHT22;520;50.932;6.962;2023-09-19T08:48:19;20.60;86.90
1063;DHT22;520;50.932;6.962;2023-09-19T08:51:41;21.20;83.50
1063;DHT22;520;50.932;6.962;2023-09-19T08:54:43;21.00;83.50
1063;DHT22;520;50.932;6.962;2023-09-19T08:57:21;20.50;84.80
1063;DHT22;520;50.932;6.962;2023-09-19T09:04:13;20.80;84.10
1063;DHT22;520;50.932;6.962;2023-09-19T09:16:23;20.90;82.40
1063;DHT22;520;50.932;6.962;2023-09-19T09:19:01;20.90;81.80
1063;DHT22;520;50.932;6.962;2023-09-19T09:22:11;21.10;81.20
1063;DHT22;520;50.932;6.962;2023-09-19T09:31:01;21.00;80.70
1063;DHT22;520;50.932;6.962;2023-09-19T09:34:04;21.60;78.50
1063;DHT22;520;50.932;6.962;2023-09-19T09:36:38;21.70;76.20
1063;DHT22;520;50.932;6.962;2023-09-19T09:39:05;21.60;76.60
1063;DHT22;520;50.932;6.962;2023-09-19T09:41:52;21.40;77.60
1063;DHT22;520;50.932;6.962;2023-09-19T09:44:19;21.50;77.80
1063;DHT22;520;50.932;6.962;2023-09-19T09:46:48;22.60;74.80
1063;DHT22;520;50.932;6.962;2023-09-19T09:49:46;23.60;70.70
1063;DHT22;520;50.932;6.962;2023-09-19T09:52:22;24.10;68.20
1063;DHT22;520;50.932;6.962;2023-09-19T09:55:03;24.10;64.90
1063;DHT22;520;50.932;6.962;2023-09-19T09:57:34;23.80;64.50
1063;DHT22;520;50.932;6.962;2023-09-19T10:00:03;23.70;64.10
1063;DHT22;520;50.932;6.962;2023-09-19T10:02:42;23.60;64.50
1063;DHT22;520;50.932;6.962;2023-09-19T10:05:15;23.30;65.70
1063;DHT22;520;50.932;6.962;2023-09-19T10:08:11;23.20;65.80
1063;DHT22;520;50.932;6.962;2023-09-19T10:10:39;23.40;63.60
1063;DHT22;520;50.932;6.962;2023-09-19T10:13:13;23.80;63.80
1063;DHT22;520;50.932;6.962;2023-09-19T10:15:43;23.90;62.20
1063;DHT22;520;50.932;6.962;2023-09-19T10:20:47;23.90;62.80
1063;DHT22;520;50.932;6.962;2023-09-19T10:23:20;23.60;63.60
1063;DHT22;520;50.932;6.962;2023-09-19T10:25:53;23.30;64.60
1063;DHT22;520;50.932;6.962;2023-09-19T10:28:21;23.30;64.80
1063;DHT22;520;50.932;6.962;2023-09-19T10:30:52;23.50;63.80
1063;DHT22;520;50.932;6.962;2023-09-19T10:33:23;23.30;64.80
1063;DHT22;520;50.932;6.962;2023-09-19T10:35:53;23.00;66.20
1063;DHT22;520;50.932;6.962;2023-09-19T10:38:27;23.00;66.50
1063;DHT22;520;50.932;6.962;2023-09-19T10:40:56;22.90;66.00
1063;DHT22;520;50.932;6.962;2023-09-19T10:43:30;22.90;66.70
1063;DHT22;520;50.932;6.962;2023-09-19T10:46:03;23.50;65.50
1063;DHT22;520;50.932;6.962;2023-09-19T10:48:32;23.30;64.90
1063;DHT22;520;50.932;6.962;2023-09-19T10:51:19;23.10;65.50
1063;DHT22;520;50.932;6.962;2023-09-19T10:54:11;23.60;63.80
1063;DHT22;520;50.932;6.962;2023-09-19T10:56:46;23.10;64.10
1063;DHT22;520;50.932;6.962;2023-09-19T10:59:20;23.10;64.70
1063;DHT22;520;50.932;6.962;2023-09-19T11:01:52;23.30;64.80
1063;DHT22;520;50.932;6.962;2023-09-19T11:04:33;23.60;64.10
1063;DHT22;520;50.932;6.962;2023-09-19T11:09:50;23.50;63.50
1063;DHT22;520;50.932;6.962;2023-09-19T11:27:12;23.60;60.50
1063;DHT22;520;50.932;6.962;2023-09-19T11:29:40;23.40;60.20
1063;DHT22;520;50.932;6.962;2023-09-19T11:32:07;23.20;61.80
1063;DHT22;520;50.932;6.962;2023-09-19T11:39:38;25.30;56.40
1063;DHT22;520;50.932;6.962;2023-09-19T11:45:08;24.30;57.50
1063;DHT22;520;50.932;6.962;2023-09-19T11:47:56;23.70;58.60
1063;DHT22;520;50.932;6.962;2023-09-19T11:50:24;23.50;58.60
1063;DHT22;520;50.932;6.962;2023-09-19T11:52:52;23.70;58.60
1063;DHT22;520;50.932;6.962;2023-09-19T11:55:22;24.70;58.00
1063;DHT22;520;50.932;6.962;2023-09-19T11:57:49;24.80;57.40
1063;DHT22;520;50.932;6.962;2023-09-19T12:00:17;25.00;56.70
1063;DHT22;520;50.932;6.962;2023-09-19T12:02:47;25.90;54.20
1063;DHT22;520;50.932;6.962;2023-09-19T12:05:15;25.80;53.00
1063;DHT22;520;50.932;6.962;2023-09-19T12:07:44;25.30;53.90
1063;DHT22;520;50.932;6.962;2023-09-19T12:10:15;25.80;53.10
1063;DHT22;520;50.932;6.962;2023-09-19T12:12:47;25.70;52.50
1063;DHT22;520;50.932;6.962;2023-09-19T12:15:25;26.20;50.90
1063;DHT22;520;50.932;6.962;2023-09-19T12:18:01;25.90;51.60
1063;DHT22;520;50.932;6.962;2023-09-19T12:20:44;25.50;52.10
1063;DHT22;520;50.932;6.962;2023-09-19T12:23:16;25.50;52.10
1063;DHT22;520;50.932;6.962;2023-09-19T12:25:45;25.90;51.40
1063;DHT22;520;50.932;6.962;2023-09-19T12:28:14;26.40;50.20
1063;DHT22;520;50.932;6.962;2023-09-19T12:30:44;26.30;49.90
1063;DHT22;520;50.932;6.962;2023-09-19T12:33:19;26.50;48.90
1063;DHT22;520;50.932;6.962;2023-09-19T12:35:46;25.60;50.20
1063;DHT22;520;50.932;6.962;2023-09-19T12:38:28;25.50;51.10
1063;DHT22;520;50.932;6.962;2023-09-19T12:40:56;25.90;51.30
1063;DHT22;520;50.932;6.962;2023-09-19T12:43:28;26.40;50.30
1063;DHT22;520;50.932;6.962;2023-09-19T12:45:59;26.60;49.40
1063;DHT22;520;50.932;6.962;2023-09-19T12:48:26;26.40;49.40
1063;DHT22;520;50.932;6.962;2023-09-19T12:53:43;26.70;48.50
1063;DHT22;520;50.932;6.962;2023-09-19T12:56:14;26.30;49.30
1063;DHT22;520;50.932;6.962;2023-09-19T12:58:51;26.10;49.70
1063;DHT22;520;50.932;6.962;2023-09-19T13:01:26;26.90;48.50
1063;DHT22;520;50.932;6.962;2023-09-19T13:10:02;26.20;49.40
1063;DHT22;520;50.932;6.962;2023-09-19T13:12:36;25.70;50.10
1063;DHT22;520;50.932;6.962;2023-09-19T13:15:13;25.50;50.80
1063;DHT22;520;50.932;6.962;2023-09-19T13:17:47;25.50;50.90
1063;DHT22;520;50.932;6.962;2023-09-19T13:20:22;25.70;51.80
1063;DHT22;520;50.932;6.962;2023-09-19T13:22:54;26.30;50.10
1063;DHT22;520;50.932;6.962;2023-09-19T13:25:27;26.10;50.10
1063;DHT22;520;50.932;6.962;2023-09-19T13:27:59;25.70;50.90
1063;DHT22;520;50.932;6.962;2023-09-19T13:30:27;25.70;51.40
1063;DHT22;520;50.932;6.962;2023-09-19T13:33:08;25.60;51.60
1063;DHT22;520;50.932;6.962;2023-09-19T13:35:37;25.20;52.30
1063;DHT22;520;50.932;6.962;2023-09-19T13:38:06;25.00;53.00
1063;DHT22;520;50.932;6.962;2023-09-19T13:40:38;24.80;53.60
1063;DHT22;520;50.932;6.962;2023-09-19T13:43:08;24.70;54.00
1063;DHT22;520;50.932;6.962;2023-09-19T13:45:37;24.60;54.30
1063;DHT22;520;50.932;6.962;2023-09-19T13:48:04;24.50;54.80
1063;DHT22;520;50.932;6.962;2023-09-19T13:50:31;24.20;55.20
1063;DHT22;520;50.932;6.962;2023-09-19T13:52:58;24.00;55.90
1063;DHT22;520;50.932;6.962;2023-09-19T13:55:27;24.00;56.20
1063;DHT22;520;50.932;6.962;2023-09-19T13:57:53;24.10;56.00
1063;DHT22;520;50.932;6.962;2023-09-19T14:00:22;24.40;56.10
1063;DHT22;520;50.932;6.962;2023-09-19T14:02:49;24.50;56.00
1063;DHT22;520;50.932;6.962;2023-09-19T14:05:18;25.20;54.60
1063;DHT22;520;50.932;6.962;2023-09-19T14:07:45;25.10;54.30
1063;DHT22;520;50.932;6.962;2023-09-19T14:10:12;24.80;54.50
1063;DHT22;520;50.932;6.962;2023-09-19T14:12:39;24.70;54.60
1063;DHT22;520;50.932;6.962;2023-09-19T14:15:08;24.50;54.80
1063;DHT22;520;50.932;6.962;2023-09-19T14:17:34;24.60;54.80
1063;DHT22;520;50.932;6.962;2023-09-19T14:20:01;24.40;55.10
1063;DHT22;520;50.932;6.962;2023-09-19T14:22:28;24.20;55.50
1063;DHT22;520;50.932;6.962;2023-09-19T14:24:55;24.40;55.60
1063;DHT22;520;50.932;6.962;2023-09-19T14:27:21;24.20;55.80
1063;DHT22;520;50.932;6.962;2023-09-19T14:29:48;23.90;56.50
1063;DHT22;520;50.932;6.962;2023-09-19T14:32:15;23.80;56.70
1063;DHT22;520;50.932;6.962;2023-09-19T14:34:43;23.70;57.10
1063;DHT22;520;50.932;6.962;2023-09-19T14:37:10;23.60;57.40
1063;DHT22;520;50.932;6.962;2023-09-19T14:39:41;23.70;57.70
1063;DHT22;520;50.932;6.962;2023-09-19T14:42:11;23.90;57.40
1063;DHT22;520;50.932;6.962;2023-09-19T14:44:37;23.60;57.70
1063;DHT22;520;50.932;6.962;2023-09-19T14:47:04;23.50;58.00
1063;DHT22;520;50.932;6.962;2023-09-19T14:49:35;23.50;58.30
1063;DHT22;520;50.932;6.962;2023-09-19T14:52:07;23.40;58.60
1063;DHT22;520;50.932;6.962;2023-09-19T14:54:34;23.40;59.00
1063;DHT22;520;50.932;6.962;2023-09-19T14:57:01;23.40;59.10
1063;DHT22;520;50.932;6.962;2023-09-19T14:59:31;23.50;59.10
1063;DHT22;520;50.932;6.962;2023-09-19T15:01:58;23.60;58.80
1063;DHT22;520;50.932;6.962;2023-09-19T15:04:27;24.00;58.00
1063;DHT22;520;50.932;6.962;2023-09-19T15:06:54;23.70;58.30
1063;DHT22;520;50.932;6.962;2023-09-19T15:09:22;23.60;58.70
1063;DHT22;520;50.932;6.962;2023-09-19T15:11:53;23.50;58.70
1063;DHT22;520;50.932;6.962;2023-09-19T15:14:21;23.80;58.80
1063;DHT22;520;50.932;6.962;2023-09-19T15:16:48;23.80;58.80
1063;DHT22;520;50.932;6.962;2023-09-19T15:19:15;23.60;58.30
1063;DHT22;520;50.932;6.962;2023-09-19T15:21:43;23.60;58.70
1063;DHT22;520;50.932;6.962;2023-09-19T15:24:10;23.50;58.90
1063;DHT22;520;50.932;6.962;2023-09-19T15:26:37;23.40;58.90
1063;DHT22;520;50.932;6.962;2023-09-19T15:29:09;23.40;58.40
1063;DHT22;520;50.932;6.962;2023-09-19T15:31:36;23.10;58.70
1063;DHT22;520;50.932;6.962;2023-09-19T15:34:04;23.00;58.90
1063;DHT22;520;50.932;6.962;2023-09-19T15:36:32;23.00;58.80
1063;DHT22;520;50.932;6.962;2023-09-19T15:41:34;23.00;59.20
1063;DHT22;520;50.932;6.962;2023-09-19T15:44:03;22.90;59.10
1063;DHT22;520;50.932;6.962;2023-09-19T15:46:32;22.80;59.40
1063;DHT22;520;50.932;6.962;2023-09-19T15:49:02;22.90;59.60
1063;DHT22;520;50.932;6.962;2023-09-19T15:51:29;22.90;59.50
1063;DHT22;520;50.932;6.962;2023-09-19T15:53:56;23.00;59.70
1063;DHT22;520;50.932;6.962;2023-09-19T15:56:24;22.90;59.50
1063;DHT22;520;50.932;6.962;2023-09-19T15:58:51;22.90;59.70
1063;DHT22;520;50.932;6.962;2023-09-19T16:01:20;22.80;59.70
1063;DHT22;520;50.932;6.962;2023-09-19T16:03:49;22.70;60.10
1063;DHT22;520;50.932;6.962;2023-09-19T16:06:18;22.80;60.40
1063;DHT22;520;50.932;6.962;2023-09-19T16:08:47;22.60;60.80
1063;DHT22;520;50.932;6.962;2023-09-19T16:11:14;22.50;61.60
1063;DHT22;520;50.932;6.962;2023-09-19T16:13:42;22.70;61.60
1063;DHT22;520;50.932;6.962;2023-09-19T16:16:09;23.00;60.90
1063;DHT22;520;50.932;6.962;2023-09-19T16:18:39;23.00;60.80
1063;DHT22;520;50.932;6.962;2023-09-19T16:21:07;23.00;60.50
1063;DHT22;520;50.932;6.962;2023-09-19T16:23:37;23.00;61.00
1063;DHT22;520;50.932;6.962;2023-09-19T16:26:06;23.10;60.30
1063;DHT22;520;50.932;6.962;2023-09-19T16:28:38;22.90;60.70
1063;DHT22;520;50.932;6.962;2023-09-19T16:31:07;22.90;61.20
1063;DHT22;520;50.932;6.962;2023-09-19T16:33:35;22.60;61.70
1063;DHT22;520;50.932;6.962;2023-09-19T16:36:08;22.70;62.10
1063;DHT22;520;50.932;6.962;2023-09-19T16:38:36;22.70;62.20
1063;DHT22;520;50.932;6.962;2023-09-19T16:41:05;22.70;62.40
1063;DHT22;520;50.932;6.962;2023-09-19T16:43:32;22.50;62.90
1063;DHT22;520;50.932;6.962;2023-09-19T16:46:02;22.70;62.80
1063;DHT22;520;50.932;6.962;2023-09-19T16:48:32;22.60;62.60
1063;DHT22;520;50.932;6.962;2023-09-19T16:51:13;22.50;63.10
1063;DHT22;520;50.932;6.962;2023-09-19T16:53:41;22.50;63.70
1063;DHT22;520;50.932;6.962;2023-09-19T16:56:10;22.50;63.70
1063;DHT22;520;50.932;6.962;2023-09-19T16:58:49;22.40;64.00
1063;DHT22;520;50.932;6.962;2023-09-19T17:01:17;22.50;63.90
1063;DHT22;520;50.932;6.962;2023-09-19T17:03:46;22.20;64.50
1063;DHT22;520;50.932;6.962;2023-09-19T17:06:14;22.10;65.40
1063;DHT22;520;50.932;6.962;2023-09-19T17:08:44;22.10;65.60
1063;DHT22;520;50.932;6.962;2023-09-19T17:11:13;22.20;65.20
1063;DHT22;520;50.932;6.962;2023-09-19T17:13:41;22.20;65.60
1063;DHT22;520;50.932;6.962;2023-09-19T17:16:12;22.20;65.80
1063;DHT22;520;50.932;6.962;2023-09-19T17:18:54;22.30;65.50
1063;DHT22;520;50.932;6.962;2023-09-19T17:21:22;22.30;65.60
1063;DHT22;520;50.932;6.962;2023-09-19T17:23:50;22.10;66.00
1063;DHT22;520;50.932;6.962;2023-09-19T17:26:18;22.00;66.70
1063;DHT22;520;50.932;6.962;2023-09-19T17:28:48;21.90;68.30
1063;DHT22;520;50.932;6.962;2023-09-19T17:31:22;21.90;67.40
1063;DHT22;520;50.932;6.962;2023-09-19T17:33:53;21.80;67.70
1063;DHT22;520;50.932;6.962;2023-09-19T17:36:26;21.80;68.00
1063;DHT22;520;50.932;6.962;2023-09-19T17:38:55;21.70;67.90
1063;DHT22;520;50.932;6.962;2023-09-19T17:41:23;21.90;67.80
1063;DHT22;520;50.932;6.962;2023-09-19T17:43:54;22.00;67.10
1063;DHT22;520;50.932;6.962;2023-09-19T17:46:22;22.10;67.20
1063;DHT22;520;50.932;6.962;2023-09-19T17:48:58;21.90;67.70
1063;DHT22;520;50.932;6.962;2023-09-19T17:51:27;21.90;68.30
1063;DHT22;520;50.932;6.962;2023-09-19T17:53:55;22.10;67.70
1063;DHT22;520;50.932;6.962;2023-09-19T17:56:30;21.90;67.40
1063;DHT22;520;50.932;6.962;2023-09-19T17:59:00;21.70;68.30
1063;DHT22;520;50.932;6.962;2023-09-19T18:01:28;21.60;69.20
1063;DHT22;520;50.932;6.962;2023-09-19T18:03:55;21.80;68.80
1063;DHT22;520;50.932;6.962;2023-09-19T18:06:27;21.70;68.70
1063;DHT22;520;50.932;6.962;2023-09-19T18:08:55;21.60;69.00
1063;DHT22;520;50.932;6.962;2023-09-19T18:11:23;21.50;69.50
1063;DHT22;520;50.932;6.962;2023-09-19T18:13:56;21.50;69.90
1063;DHT22;520;50.932;6.962;2023-09-19T18:16:23;21.50;70.20
1063;DHT22;520;50.932;6.962;2023-09-19T18:19:00;21.40;71.00
1063;DHT22;520;50.932;6.962;2023-09-19T18:21:28;21.30;71.50
1063;DHT22;520;50.932;6.962;2023-09-19T18:23:58;21.30;71.80
1063;DHT22;520;50.932;6.962;2023-09-19T18:26:27;21.20;72.50
1063;DHT22;520;50.932;6.962;2023-09-19T18:28:54;21.20;72.90
1063;DHT22;520;50.932;6.962;2023-09-19T18:31:21;21.20;73.10
1063;DHT22;520;50.932;6.962;2023-09-19T18:33:49;21.20;73.30
1063;DHT22;520;50.932;6.962;2023-09-19T18:36:17;21.20;73.80
1063;DHT22;520;50.932;6.962;2023-09-19T18:38:44;21.10;73.80
1063;DHT22;520;50.932;6.962;2023-09-19T18:41:15;21.00;74.10
1063;DHT22;520;50.932;6.962;2023-09-19T18:43:43;21.00;74.70
1063;DHT22;520;50.932;6.962;2023-09-19T18:46:10;21.10;74.70
1063;DHT22;520;50.932;6.962;2023-09-19T18:48:40;21.10;74.60
1063;DHT22;520;50.932;6.962;2023-09-19T18:51:12;21.10;74.70
1063;DHT22;520;50.932;6.962;2023-09-19T18:53:41;21.00;74.80
1063;DHT22;520;50.932;6.962;2023-09-19T18:56:12;21.00;75.10
1063;DHT22;520;50.932;6.962;2023-09-19T18:58:45;21.00;75.30
1063;DHT22;520;50.932;6.962;2023-09-19T19:01:15;20.90;75.30
1063;DHT22;520;50.932;6.962;2023-09-19T19:03:43;20.90;75.70
1063;DHT22;520;50.932;6.962;2023-09-19T19:06:13;21.00;75.30
1063;DHT22;520;50.932;6.962;2023-09-19T19:08:42;20.90;75.40
1063;DHT22;520;50.932;6.962;2023-09-19T19:11:11;20.90;75.90
1063;DHT22;520;50.932;6.962;2023-09-19T19:13:38;21.00;75.50
1063;DHT22;520;50.932;6.962;2023-09-19T19:16:05;21.00;75.50
1063;DHT22;520;50.932;6.962;2023-09-19T19:18:37;20.90;75.30
1063;DHT22;520;50.932;6.962;2023-09-19T19:21:07;20.80;76.00
1063;DHT22;520;50.932;6.962;2023-09-19T19:23:36;20.80;76.30
1063;DHT22;520;50.932;6.962;2023-09-19T19:26:03;20.80;76.40
1063;DHT22;520;50.932;6.962;2023-09-19T19:28:31;20.80;76.60
1063;DHT22;520;50.932;6.962;2023-09-19T19:30:58;20.80;76.70
1063;DHT22;520;50.932;6.962;2023-09-19T19:33:25;20.70;77.00
1063;DHT22;520;50.932;6.962;2023-09-19T19:36:04;20.70;77.50
1063;DHT22;520;50.932;6.962;2023-09-19T19:38:32;20.70;77.70
1063;DHT22;520;50.932;6.962;2023-09-19T19:41:03;20.70;77.70
1063;DHT22;520;50.932;6.962;2023-09-19T19:43:31;20.60;78.00
1063;DHT22;520;50.932;6.962;2023-09-19T19:45:59;20.60;78.20
1063;DHT22;520;50.932;6.962;2023-09-19T19:48:27;20.60;78.40
1063;DHT22;520;50.932;6.962;2023-09-19T19:50:55;20.50;79.00
1063;DHT22;520;50.932;6.962;2023-09-19T19:53:25;20.50;79.30
1063;DHT22;520;50.932;6.962;2023-09-19T19:55:52;20.60;79.40
1063;DHT22;520;50.932;6.962;2023-09-19T19:58:19;20.60;79.30
1063;DHT22;520;50.932;6.962;2023-09-19T20:00:55;20.60;79.50
1063;DHT22;520;50.932;6.962;2023-09-19T20:03:26;20.60;79.70
1063;DHT22;520;50.932;6.962;2023-09-19T20:05:53;20.50;79.70
1063;DHT22;520;50.932;6.962;2023-09-19T20:08:21;20.50;80.30
1063;DHT22;520;50.932;6.962;2023-09-19T20:10:49;20.60;80.40
1063;DHT22;520;50.932;6.962;2023-09-19T20:13:16;20.60;80.30
1063;DHT22;520;50.932;6.962;2023-09-19T20:15:53;20.50;80.70
1063;DHT22;520;50.932;6.962;2023-09-19T20:18:21;20.50;81.10
1063;DHT22;520;50.932;6.962;2023-09-19T20:20:49;20.50;81.10
1063;DHT22;520;50.932;6.962;2023-09-19T20:23:17;20.50;81.50
1063;DHT22;520;50.932;6.962;2023-09-19T20:25:45;20.50;81.60
1063;DHT22;520;50.932;6.962;2023-09-19T20:28:12;20.40;81.70
1063;DHT22;520;50.932;6.962;2023-09-19T20:30:39;20.40;82.20
1063;DHT22;520;50.932;6.962;2023-09-19T20:33:09;20.50;82.60
1063;DHT22;520;50.932;6.962;2023-09-19T20:35:39;20.50;83.00
1063;DHT22;520;50.932;6.962;2023-09-19T20:38:06;20.40;83.70
1063;DHT22;520;50.932;6.962;2023-09-19T20:40:34;20.40;84.30
1063;DHT22;520;50.932;6.962;2023-09-19T20:43:03;20.40;84.80
1063;DHT22;520;50.932;6.962;2023-09-19T20:45:34;20.30;85.00
1063;DHT22;520;50.932;6.962;2023-09-19T20:48:07;20.40;85.80
1063;DHT22;520;50.932;6.962;2023-09-19T20:50:38;20.50;84.90
1063;DHT22;520;50.932;6.962;2023-09-19T20:53:05;20.40;85.30
1063;DHT22;520;50.932;6.962;2023-09-19T20:55:32;20.50;85.00
1063;DHT22;520;50.932;6.962;2023-09-19T20:58:04;20.40;85.50